Time;durP1;ratioP1;P1;durP2;ratioP2;P2;SDS_P1;SDS_P2;PMS_P1;PMS_P2;Temp;Humidity;BMP_temperature;BMP_pressure;BME280_temperature;BME280_humidity;BME280_pressure;Samples;Min_cycle;Max_cycle;Signal;HPM_P1;HPM_P2
2023/04/03 00:01:34;;;;;;;1.30;0.80;;;17.30;74.50;;;;;;5071834;28;20061;-40
2023/04/03 00:04:03;;;;;;;1.73;0.80;;;;;;;;;;5066960;28;20413;-34
2023/04/03 00:06:29;;;;;;;1.27;0.70;;;18.10;74.50;;;;;;5051767;28;20466;-40
2023/04/03 00:08:56;;;;;;;1.38;0.90;;;17.30;74.60;;;;;;5051793;28;20132;-38
2023/04/03 00:11:23;;;;;;;0.73;0.70;;;;;;;;;;5051614;28;20052;-38
2023/04/03 00:13:51;;;;;;;1.27;0.90;;;17.70;47.00;;;;;;5051836;28;20048;-40
2023/04/03 00:16:18;;;;;;;0.98;0.80;;;17.50;74.70;;;;;;5067303;28;20063;-41
2023/04/03 00:18:45;;;;;;;2.00;1.00;;;;;;;;;;5071681;28;20605;-39
2023/04/03 00:21:12;;;;;;;1.55;1.08;;;18.20;75.00;;;;;;5071144;28;20519;-37
2023/04/03 00:23:39;;;;;;;1.20;0.77;;;;;;;;;;5071527;28;20049;-34
2023/04/03 00:26:06;;;;;;;1.10;0.80;;;17.50;74.70;;;;;;5071621;28;20044;-40
2023/04/03 00:28:32;;;;;;;0.82;0.80;;;16.30;73.70;;;;;;5071819;28;20060;-40
2023/04/03 00:31:00;;;;;;;1.00;0.80;;;17.60;46.90;;;;;;5071571;28;20391;-37
2023/04/03 00:33:27;;;;;;;0.80;0.80;;;17.20;74.20;;;;;;5071532;28;20055;-41
2023/04/03 00:35:54;;;;;;;1.30;1.00;;;;;;;;;;5070508;28;20055;-38
2023/04/03 00:38:21;;;;;;;1.15;0.90;;;18.00;74.70;;;;;;5071481;28;20055;-39
2023/04/03 00:40:48;;;;;;;1.10;0.80;;;17.50;46.90;;;;;;5071394;28;20044;-34
2023/04/03 00:43:16;;;;;;;1.48;0.85;;;;;;;;;;5071519;28;20052;-40
2023/04/03 00:45:43;;;;;;;1.08;0.90;;;17.10;74.50;;;;;;5071654;28;20056;-39
2023/04/03 00:48:14;;;;;;;2.08;1.08;;;17.40;46.80;;;;;;5070902;28;20408;-37
2023/04/03 00:50:42;;;;;;;1.00;0.90;;;17.90;74.70;;;;;;5071342;28;20068;-39
2023/04/03 00:53:09;;;;;;;1.45;1.10;;;17.50;46.90;;;;;;5071137;28;20185;-37
2023/04/03 00:55:36;;;;;;;1.15;0.90;;;;;;;;;;5071117;28;20048;-37
2023/04/03 00:58:03;;;;;;;1.15;0.90;;;16.20;74.20;;;;;;5071437;28;20048;-37
2023/04/03 01:00:30;;;;;;;1.85;1.00;;;;;;;;;;5071778;28;20044;-40
2023/04/03 01:02:57;;;;;;;1.58;1.05;;;17.20;52.40;;;;;;5070864;28;20074;-38
2023/04/03 01:05:25;;;;;;;1.45;0.98;;;17.10;74.70;;;;;;5060821;28;20127;-41
2023/04/03 01:07:52;;;;;;;1.45;1.02;;;;;;;;;;5055163;28;20061;-36
2023/04/03 01:10:20;;;;;;;1.00;0.90;;;;;;;;;;5055022;28;20128;-37
2023/04/03 01:12:47;;;;;;;1.25;1.08;;;;;;;;;;5065236;28;20056;-38
2023/04/03 01:15:15;;;;;;;1.40;1.00;;;;;;;;;;5055096;28;20051;-40
2023/04/03 01:17:43;;;;;;;1.58;1.10;;;17.50;46.80;;;;;;5054726;28;20505;-39
2023/04/03 01:20:42;;;;;;;1.40;1.10;;;17.60;46.90;;;;;;5055504;28;20468;-37
2023/04/03 01:23:17;;;;;;;2.28;1.13;;;17.70;47.00;;;;;;5050193;28;20532;-36
2023/04/03 01:25:45;;;;;;;2.13;1.15;;;17.40;74.70;;;;;;5073576;28;20048;-41
2023/04/03 01:28:13;;;;;;;1.48;1.00;;;17.60;46.90;;;;;;5074686;28;20509;-40
2023/04/03 01:30:43;;;;;;;1.70;1.02;;;17.60;46.70;;;;;;5074299;28;20048;-41
2023/04/03 01:33:11;;;;;;;1.77;1.10;;;17.70;46.80;;;;;;5074382;28;20052;-37
2023/04/03 01:35:38;;;;;;;1.52;1.02;;;17.90;74.70;;;;;;5073955;28;20055;-40
2023/04/03 01:38:05;;;;;;;1.70;1.20;;;16.50;73.40;;;;;;5074038;28;20052;-41
2023/04/03 01:40:32;;;;;;;1.80;1.05;;;;;;;;;;5074391;28;20448;-35
2023/04/03 01:42:58;;;;;;;2.10;1.10;;;17.70;74.50;;;;;;5073867;28;20486;-39
2023/04/03 01:45:25;;;;;;;2.03;1.10;;;;;;;;;;5074584;28;20048;-41
2023/04/03 01:47:52;;;;;;;1.60;1.10;;;18.90;74.30;;;;;;5074370;28;20056;-40
2023/04/03 01:50:20;;;;;;;1.45;1.00;;;17.60;73.90;;;;;;5073424;28;20048;-39
2023/04/03 01:52:47;;;;;;;1.60;1.20;;;17.60;73.70;;;;;;5073846;28;20048;-39
2023/04/03 01:55:14;;;;;;;2.25;1.30;;;;;;;;;;5074230;28;20513;-37
2023/04/03 01:57:41;;;;;;;2.78;1.30;;;17.90;73.70;;;;;;5074087;28;20048;-36
2023/04/03 02:00:09;;;;;;;1.80;1.10;;;18.00;46.40;;;;;;5074004;28;20135;-37
2023/04/03 02:02:36;;;;;;;2.22;1.15;;;;;;;;;;5073688;28;20084;-31
2023/04/03 02:05:03;;;;;;;1.80;1.10;;;;;;;;;;5060193;28;20056;-34
2023/04/03 02:07:31;;;;;;;2.55;1.25;;;18.10;46.40;;;;;;5058443;28;20140;-35
2023/04/03 02:09:58;;;;;;;1.30;0.93;;;;;;;;;;5073685;28;20059;-31
2023/04/03 02:12:25;;;;;;;2.17;1.00;;;17.60;73.30;;;;;;5073598;28;20041;-31
2023/04/03 02:14:52;;;;;;;1.25;1.00;;;;;;;;;;5073981;28;20048;-36
2023/04/03 02:17:19;;;;;;;1.23;1.00;;;18.20;59.80;;;;;;5072596;28;20055;-39
2023/04/03 02:19:45;;;;;;;1.40;1.00;;;18.10;73.30;;;;;;5073685;28;20094;-40
2023/04/03 02:22:12;;;;;;;2.22;1.10;;;18.20;66.40;;;;;;5073393;28;20062;-38
2023/04/03 02:24:41;;;;;;;1.73;1.17;;;18.30;46.00;;;;;;5073302;28;20070;-38
2023/04/03 02:27:07;;;;;;;1.27;1.00;;;17.30;73.00;;;;;;5073440;28;20489;-40
2023/04/03 02:29:34;;;;;;;1.00;0.95;;;18.00;73.50;;;;;;5073542;28;20056;-31
2023/04/03 02:32:01;;;;;;;1.80;1.13;;;;;;;;;;5072963;28;20129;-38
2023/04/03 02:34:28;;;;;;;2.30;1.33;;;19.90;74.00;;;;;;5073077;28;20131;-32
2023/04/03 02:36:55;;;;;;;1.77;0.98;;;18.60;73.70;;;;;;5073009;28;20051;-31
2023/04/03 02:39:22;;;;;;;1.20;0.98;;;18.80;67.60;;;;;;5072910;28;20471;-32
2023/04/03 02:41:50;;;;;;;1.90;1.30;;;19.80;74.00;;;;;;5073327;28;20056;-31
2023/04/03 02:44:17;;;;;;;1.30;1.05;;;18.30;73.60;;;;;;5073204;28;20060;-31
2023/04/03 02:46:44;;;;;;;2.00;1.00;;;19.50;73.30;;;;;;5072317;28;20524;-31
2023/04/03 02:49:10;;;;;;;1.45;1.05;;;18.60;73.60;;;;;;5072951;28;20048;-31
2023/04/03 02:51:38;;;;;;;1.42;1.05;;;;;;;;;;5073138;28;20051;-31
2023/04/03 02:54:04;;;;;;;1.35;1.02;;;18.90;73.20;;;;;;5072750;28;20058;-31
2023/04/03 02:56:31;;;;;;;1.90;1.17;;;18.50;73.50;;;;;;5072892;28;20045;-31
2023/04/03 02:58:59;;;;;;;2.45;1.05;;;18.40;45.80;;;;;;5073034;28;20416;-37
2023/04/03 03:01:28;;;;;;;1.75;0.98;;;;;;;;;;5066189;28;20049;-34
2023/04/03 03:03:54;;;;;;;1.65;1.13;;;17.40;72.80;;;;;;5058581;28;20098;-31
2023/04/03 03:06:21;;;;;;;1.95;1.20;;;18.30;72.80;;;;;;5072704;28;20408;-31
2023/04/03 03:08:48;;;;;;;1.88;1.00;;;;;;;;;;5072549;28;20068;-37
2023/04/03 03:11:15;;;;;;;1.77;1.42;;;18.80;70.70;;;;;;5072534;28;20055;-33
2023/04/03 03:13:42;;;;;;;2.08;1.10;;;18.40;73.20;;;;;;5072366;28;20044;-32
2023/04/03 03:16:10;;;;;;;1.70;1.08;;;20.00;49.70;;;;;;5072011;28;20126;-33
2023/04/03 03:18:37;;;;;;;2.17;1.02;;;;;;;;;;5072356;28;20068;-34
2023/04/03 03:21:04;;;;;;;1.83;1.15;;;18.80;73.00;;;;;;5072395;28;20055;-31
2023/04/03 03:23:32;;;;;;;1.30;1.02;;;18.50;45.60;;;;;;5071982;28;20422;-32
2023/04/03 03:25:59;;;;;;;3.35;1.30;;;;;;;;;;5072328;28;20110;-31
2023/04/03 03:28:25;;;;;;;3.25;1.10;;;18.90;72.80;;;;;;5071875;28;20052;-31
2023/04/03 03:30:52;;;;;;;2.90;1.00;;;17.60;72.30;;;;;;5071428;28;20051;-32
2023/04/03 03:33:20;;;;;;;1.33;0.98;;;18.60;45.60;;;;;;5071878;28;20051;-35
2023/04/03 03:35:47;;;;;;;2.53;1.02;;;;;;;;;;5071911;28;20416;-34
2023/04/03 03:38:14;;;;;;;1.40;0.90;;;17.40;58.30;;;;;;5071780;28;20480;-32
2023/04/03 03:40:41;;;;;;;1.85;1.10;;;18.60;72.70;;;;;;5072238;28;20082;-32
2023/04/03 03:43:07;;;;;;;1.35;0.90;;;19.10;56.40;;;;;;5071841;28;20049;-34
2023/04/03 03:45:34;;;;;;;1.13;1.00;;;18.90;58.30;;;;;;5052294;28;20135;-31
2023/04/03 03:48:02;;;;;;;1.75;1.00;;;18.80;72.50;;;;;;5051976;28;20055;-31
2023/04/03 03:50:30;;;;;;;1.88;1.10;;;18.80;72.90;;;;;;5051990;28;20057;-32
2023/04/03 03:52:56;;;;;;;1.80;1.20;;;19.10;72.80;;;;;;5051729;28;20045;-32
2023/04/03 03:55:24;;;;;;;1.30;0.90;;;;;;;;;;5051668;28;20080;-35
2023/04/03 03:57:50;;;;;;;2.47;1.00;;;18.10;72.20;;;;;;5051933;28;20071;-31
2023/04/03 04:00:18;;;;;;;1.60;1.10;;;;;;;;;;5070733;28;20691;-31
2023/04/03 04:02:44;;;;;;;1.95;1.10;;;19.90;73.00;;;;;;5071542;28;20054;-31
2023/04/03 04:05:11;;;;;;;1.70;1.00;;;17.30;71.80;;;;;;5071878;28;20044;-32
2023/04/03 04:07:39;;;;;;;2.92;1.20;;;18.70;45.20;;;;;;5071668;28;20420;-35
2023/04/03 04:10:06;;;;;;;1.42;1.05;;;18.70;45.20;;;;;;5071629;28;20055;-35
2023/04/03 04:12:35;;;;;;;2.22;1.00;;;19.90;73.50;;;;;;5070931;28;20059;-31
2023/04/03 04:15:02;;;;;;;2.25;1.10;;;;;;;;;;5071468;28;20059;-32
2023/04/03 04:17:29;;;;;;;2.00;1.05;;;18.80;72.60;;;;;;5071570;28;20412;-32
2023/04/03 04:19:56;;;;;;;1.98;1.00;;;18.30;65.40;;;;;;5071702;28;20127;-31
2023/04/03 04:22:23;;;;;;;2.15;1.13;;;;;;;;;;5071585;28;20071;-34
2023/04/03 04:24:51;;;;;;;1.48;0.98;;;20.10;73.00;;;;;;5071408;28;20123;-31
2023/04/03 04:27:18;;;;;;;2.20;1.10;;;;;;;;;;5071164;28;20047;-31
2023/04/03 04:29:45;;;;;;;1.98;1.10;;;;;;;;;;5071411;28;20049;-35
2023/04/03 04:32:11;;;;;;;2.45;1.17;;;18.10;72.10;;;;;;5071366;28;20051;-32
2023/04/03 04:34:38;;;;;;;1.67;1.10;;;17.90;72.00;;;;;;5071736;28;20048;-31
2023/04/03 04:37:05;;;;;;;1.65;1.13;;;;;;;;;;5070670;28;20510;-34
2023/04/03 04:39:32;;;;;;;1.38;1.02;;;19.10;72.60;;;;;;5072409;28;20048;-31
2023/04/03 04:42:00;;;;;;;1.80;1.00;;;;;;;;;;5074914;28;20373;-31
2023/04/03 04:44:27;;;;;;;1.73;1.05;;;;;;;;;;5075401;28;20412;-36
2023/04/03 04:46:54;;;;;;;1.55;1.00;;;19.10;72.60;;;;;;5075499;28;20132;-32
2023/04/03 04:49:21;;;;;;;2.13;1.20;;;19.20;70.90;;;;;;5075227;28;20123;-31
2023/04/03 04:51:47;;;;;;;1.88;1.17;;;18.90;56.70;;;;;;5075144;28;20048;-34
2023/04/03 04:54:15;;;;;;;2.35;1.20;;;;;;;;;;5075014;28;20425;-31
2023/04/03 04:56:42;;;;;;;1.20;1.00;;;;;;;;;;5070998;28;20053;-34
2023/04/03 04:59:10;;;;;;;1.48;1.20;;;19.00;72.50;;;;;;5075008;28;20052;-32
2023/04/03 05:01:36;;;;;;;1.63;1.10;;;19.20;72.10;;;;;;5075080;28;20051;-31
2023/04/03 05:04:04;;;;;;;1.33;0.98;;;;;;;;;;5074711;28;20048;-31
2023/04/03 05:06:31;;;;;;;1.90;1.25;;;19.00;72.30;;;;;;5074914;28;20049;-31
2023/04/03 05:08:58;;;;;;;1.02;0.93;;;18.60;56.70;;;;;;5074695;28;20052;-32
2023/04/03 05:11:25;;;;;;;2.15;1.00;;;19.30;69.50;;;;;;5074098;28;20057;-31
2023/04/03 05:13:52;;;;;;;1.50;1.05;;;;;;;;;;5074804;28;20051;-36
2023/04/03 05:16:20;;;;;;;2.13;1.08;;;19.00;71.90;;;;;;5074768;28;20044;-31
2023/04/03 05:18:47;;;;;;;3.20;1.20;;;19.20;72.40;;;;;;5074610;28;20051;-31
2023/04/03 05:21:15;;;;;;;1.42;1.15;;;;;;;;;;5074264;28;20508;-31
2023/04/03 05:23:42;;;;;;;1.75;1.20;;;;;;;;;;5074634;28;20048;-31
2023/04/03 05:26:09;;;;;;;1.98;1.15;;;;;;;;;;5073777;28;20055;-35
2023/04/03 05:28:36;;;;;;;1.98;1.20;;;19.00;60.20;;;;;;5074701;28;20134;-31
2023/04/03 05:31:03;;;;;;;1.88;1.20;;;;;;;;;;5074565;28;20087;-32
2023/04/03 05:33:31;;;;;;;1.92;1.08;;;19.50;72.60;;;;;;5074119;28;20075;-31
2023/04/03 05:35:58;;;;;;;1.67;1.10;;;18.50;72.00;;;;;;5074034;28;20048;-31
2023/04/03 05:38:25;;;;;;;1.85;1.23;;;;;;;;;;5072808;28;20064;-38
2023/04/03 05:40:52;;;;;;;2.17;1.20;;;17.70;71.60;;;;;;5073643;28;20075;-31
2023/04/03 05:43:19;;;;;;;2.10;1.30;;;;;;;;;;5070812;28;20515;-36
2023/04/03 05:45:46;;;;;;;2.28;1.10;;;;;;;;;;5063251;28;20045;-32
2023/04/03 05:48:13;;;;;;;2.38;1.00;;;;;;;;;;5065532;28;20048;-39
2023/04/03 05:50:42;;;;;;;2.35;1.33;;;17.50;71.00;;;;;;5073915;28;20045;-31
2023/04/03 05:53:10;;;;;;;2.30;1.20;;;19.40;72.00;;;;;;5073268;28;20084;-32
2023/04/03 05:55:36;;;;;;;1.60;1.10;;;18.60;71.60;;;;;;5072828;28;20074;-31
2023/04/03 05:58:04;;;;;;;2.13;1.00;;;;;;;;;;5073923;28;20408;-33
2023/04/03 06:00:30;;;;;;;2.42;1.10;;;19.20;72.20;;;;;;5073753;28;20049;-31
2023/04/03 06:02:57;;;;;;;1.40;1.13;;;;;;;;;;5073240;28;20563;-34
2023/04/03 06:05:25;;;;;;;1.65;1.10;;;;;;;;;;5071033;28;20059;-31
2023/04/03 06:07:53;;;;;;;2.70;1.40;;;18.90;44.30;;;;;;5059973;28;20055;-36
2023/04/03 06:10:20;;;;;;;3.47;1.23;;;18.60;48.20;;;;;;5072246;28;20044;-32
2023/04/03 06:12:47;;;;;;;1.85;1.15;;;;;;;;;;5072079;28;20048;-32
2023/04/03 06:15:14;;;;;;;2.28;1.20;;;18.30;43.90;;;;;;5072081;28;20165;-33
2023/04/03 06:17:41;;;;;;;1.52;1.13;;;;;;;;;;5060569;28;20045;-31
2023/04/03 06:20:09;;;;;;;2.90;1.20;;;17.80;58.40;;;;;;5060497;28;20070;-31
2023/04/03 06:22:36;;;;;;;2.55;1.30;;;;;;;;;;5061812;28;20068;-30
2023/04/03 06:25:06;;;;;;;3.33;1.15;;;19.40;71.60;;;;;;5064294;28;20055;-33
2023/04/03 06:27:32;;;;;;;2.22;1.38;;;19.40;62.40;;;;;;5062790;28;20048;-32
2023/04/03 06:29:59;;;;;;;1.83;1.30;;;;;;;;;;5061210;28;20127;-31
2023/04/03 06:32:26;;;;;;;2.92;1.30;;;;;;;;;;5062989;28;20052;-35
2023/04/03 06:34:55;;;;;;;2.70;1.15;;;18.00;70.00;;;;;;5063575;28;20041;-29
2023/04/03 06:37:22;;;;;;;1.75;1.10;;;19.50;43.90;;;;;;5055546;28;20062;-31
2023/04/03 06:39:49;;;;;;;1.85;1.15;;;19.90;71.30;;;;;;5064969;28;20059;-30
2023/04/03 06:42:17;;;;;;;1.27;1.10;;;19.40;45.20;;;;;;5073224;28;20051;-30
2023/04/03 06:44:44;;;;;;;2.88;1.10;;;20.40;71.50;;;;;;5072744;28;20048;-31
2023/04/03 06:47:11;;;;;;;3.72;1.35;;;;;;;;;;5073073;28;20134;-35
2023/04/03 06:49:37;;;;;;;3.50;1.10;;;19.70;70.80;;;;;;5072835;28;20067;-29
2023/04/03 06:52:05;;;;;;;2.90;1.23;;;18.90;69.80;;;;;;5064168;28;20045;-31
2023/04/03 06:54:32;;;;;;;2.10;1.25;;;;;;;;;;5072787;28;20059;-32
2023/04/03 06:56:59;;;;;;;1.67;1.00;;;19.90;70.40;;;;;;5073132;28;20049;-31
2023/04/03 06:59:27;;;;;;;3.17;1.40;;;20.20;62.90;;;;;;5072883;28;20131;-31
2023/04/03 07:01:53;;;;;;;3.67;1.30;;;19.50;58.20;;;;;;5072515;28;20040;-31
2023/04/03 07:04:20;;;;;;;1.88;1.10;;;19.90;60.80;;;;;;5071358;28;20052;-31
2023/04/03 07:06:47;;;;;;;1.83;0.98;;;;;;;;;;5071723;28;20409;-34
2023/04/03 07:09:15;;;;;;;1.83;1.02;;;;;;;;;;5072796;28;20054;-30
2023/04/03 07:11:42;;;;;;;2.70;1.30;;;;;;;;;;5072365;28;20040;-35
2023/04/03 07:14:09;;;;;;;3.47;1.45;;;20.50;70.70;;;;;;5071576;28;20054;-32
2023/04/03 07:16:37;;;;;;;2.13;1.10;;;20.10;43.30;;;;;;5060945;28;20055;-34
2023/04/03 07:19:04;;;;;;;1.63;1.15;;;;;;;;;;5052190;28;20536;-35
2023/04/03 07:21:30;;;;;;;2.10;1.20;;;21.00;70.70;;;;;;5051862;28;20074;-30
2023/04/03 07:23:57;;;;;;;2.05;1.40;;;20.10;70.20;;;;;;5055764;28;20048;-32
2023/04/03 07:26:25;;;;;;;2.88;1.30;;;;;;;;;;5055214;28;20059;-35
2023/04/03 07:28:52;;;;;;;1.73;1.10;;;;;;;;;;5057360;28;20048;-34
2023/04/03 07:31:19;;;;;;;1.85;1.30;;;20.20;69.70;;;;;;5062949;28;20041;-30
2023/04/03 07:33:47;;;;;;;2.53;1.10;;;20.30;43.20;;;;;;5060806;28;20045;-34
2023/04/03 07:36:16;;;;;;;1.52;1.10;;;20.40;43.20;;;;;;5058457;28;20131;-34
2023/04/03 07:38:42;;;;;;;3.25;1.20;;;20.60;51.00;;;;;;5060322;28;20071;-32
2023/04/03 07:41:12;;;;;;;2.28;1.13;;;20.10;69.80;;;;;;5053138;28;20051;-30
2023/04/03 07:43:40;;;;;;;1.80;1.10;;;;;;;;;;5068838;28;20052;-34
2023/04/03 07:46:07;;;;;;;2.90;1.27;;;20.90;69.80;;;;;;5064600;28;20059;-30
2023/04/03 07:48:34;;;;;;;3.17;1.30;;;20.40;69.50;;;;;;5051672;28;20493;-30
2023/04/03 07:51:03;;;;;;;1.90;1.23;;;19.90;69.10;;;;;;5051515;28;20045;-31
2023/04/03 07:53:30;;;;;;;2.00;1.20;;;20.50;69.80;;;;;;5055912;28;20053;-30
2023/04/03 07:55:57;;;;;;;1.77;1.08;;;20.60;43.00;;;;;;5051864;28;20055;-35
2023/04/03 07:58:24;;;;;;;2.55;1.30;;;20.30;69.30;;;;;;5051791;28;20045;-30
2023/04/03 08:00:51;;;;;;;1.17;1.00;;;;;;;;;;5051887;28;20055;-30
2023/04/03 08:03:18;;;;;;;2.50;1.23;;;21.30;69.60;;;;;;5071230;28;20048;-30
2023/04/03 08:05:45;;;;;;;2.33;1.15;;;;;;;;;;5071897;28;20053;-30
2023/04/03 08:08:15;;;;;;;2.83;1.30;;;21.10;69.80;;;;;;5071755;28;20056;-30
2023/04/03 08:10:42;;;;;;;2.67;1.30;;;20.40;66.00;;;;;;5070957;28;20132;-31
2023/04/03 08:13:08;;;;;;;1.73;1.00;;;20.10;69.30;;;;;;5071752;28;20055;-30
2023/04/03 08:15:36;;;;;;;2.75;1.25;;;;;;;;;;5064929;28;20049;-34
2023/04/03 08:18:03;;;;;;;1.55;1.00;;;20.30;69.00;;;;;;5059664;28;20044;-30
2023/04/03 08:20:30;;;;;;;1.63;1.17;;;20.50;46.90;;;;;;5063065;28;20045;-32
2023/04/03 08:22:56;;;;;;;2.10;1.17;;;21.90;69.80;;;;;;5059628;28;20041;-30
2023/04/03 08:25:25;;;;;;;2.05;1.10;;;19.50;68.60;;;;;;5070604;28;20061;-30
2023/04/03 08:27:51;;;;;;;1.52;0.95;;;22.00;70.30;;;;;;5071708;28;20110;-30
2023/04/03 08:30:18;;;;;;;2.47;1.23;;;21.20;48.00;;;;;;5071507;28;20058;-34
2023/04/03 08:32:45;;;;;;;1.98;1.00;;;20.30;69.10;;;;;;5071303;28;20045;-31
2023/04/03 08:35:11;;;;;;;1.75;1.10;;;20.90;69.40;;;;;;5071591;28;20416;-30
2023/04/03 08:37:38;;;;;;;1.50;0.98;;;21.40;45.60;;;;;;5070955;28;20131;-32
2023/04/03 08:40:05;;;;;;;1.67;1.10;;;20.60;68.80;;;;;;5057581;28;20494;-30
2023/04/03 08:42:41;;;;;;;1.02;0.90;;;20.90;44.90;;;;;;5066577;28;20078;-32
2023/04/03 08:45:09;;;;;;;1.73;0.98;;;20.60;43.60;;;;;;5071631;28;20139;-30
2023/04/03 08:47:38;;;;;;;2.22;1.08;;;20.20;68.60;;;;;;5071600;28;20390;-30
2023/04/03 08:50:07;;;;;;;2.47;1.20;;;20.70;69.00;;;;;;5071452;28;20052;-30
2023/04/03 08:52:36;;;;;;;1.33;0.90;;;21.30;69.30;;;;;;5053318;28;20052;-30
2023/04/03 08:55:04;;;;;;;1.60;1.02;;;21.00;68.30;;;;;;5051232;28;20049;-31
2023/04/03 08:57:33;;;;;;;1.63;1.10;;;20.90;59.40;;;;;;5051541;28;20056;-32
2023/04/03 09:00:04;;;;;;;0.82;0.73;;;20.10;68.50;;;;;;5051227;28;20052;-30
2023/04/03 09:02:33;;;;;;;2.33;1.02;;;22.10;69.50;;;;;;5050789;28;20585;-30
2023/04/03 09:05:00;;;;;;;1.25;0.90;;;22.00;69.30;;;;;;5051401;28;20049;-30
2023/04/03 09:07:34;;;;;;;1.80;1.00;;;21.50;42.30;;;;;;5051326;28;20409;-35
2023/04/03 09:10:02;;;;;;;1.65;1.10;;;20.90;68.50;;;;;;5050851;28;20490;-31
2023/04/03 09:12:33;;;;;;;2.47;0.90;;;21.60;42.20;;;;;;5050944;28;20056;-34
2023/04/03 09:15:05;;;;;;;1.60;0.82;;;21.40;51.90;;;;;;5051414;28;20394;-30
2023/04/03 09:17:38;;;;;;;1.17;0.90;;;21.40;41.90;;;;;;5068367;28;20131;-32
2023/04/03 09:20:10;;;;;;;1.05;0.80;;;21.50;48.60;;;;;;5052036;28;20498;-34
2023/04/03 09:22:38;;;;;;;2.72;1.17;;;21.80;41.90;;;;;;5063328;28;20047;-35
2023/04/03 09:25:13;;;;;;;1.20;0.90;;;21.90;68.40;;;;;;5070745;28;20048;-31
2023/04/03 09:27:40;;;;;;;3.63;0.80;;;;;;;;;;5059739;28;20051;-35
2023/04/03 09:30:13;;;;;;;1.25;0.80;;;22.20;68.10;;;;;;5062648;28;20040;-31
2023/04/03 09:32:40;;;;;;;1.55;1.00;;;;;;;;;;5054257;28;20049;-37
2023/04/03 09:35:17;;;;;;;0.88;0.82;;;22.60;68.10;;;;;;5054702;28;20080;-31
2023/04/03 09:37:44;;;;;;;0.63;0.63;;;22.20;41.70;;;;;;5065872;28;20076;-34
2023/04/03 09:40:34;;;;;;;1.13;0.80;;;22.00;67.80;;;;;;5054174;28;20049;-32
2023/04/03 09:43:01;;;;;;;1.38;1.00;;;21.90;41.50;;;;;;5065996;28;20076;-31
2023/04/03 09:45:30;;;;;;;1.48;0.80;;;21.90;67.70;;;;;;5062440;28;20048;-31
2023/04/03 09:48:08;;;;;;;1.85;0.90;;;21.90;66.40;;;;;;5064746;28;20048;-31
2023/04/03 09:50:35;;;;;;;1.20;0.88;;;22.20;67.80;;;;;;5073696;28;20420;-32
2023/04/03 09:53:06;;;;;;;0.95;0.70;;;21.80;67.80;;;;;;5067711;28;20041;-30
2023/04/03 09:55:33;;;;;;;0.98;0.80;;;23.40;68.70;;;;;;5054453;28;20060;-33
2023/04/03 09:58:00;;;;;;;1.83;0.90;;;22.00;67.70;;;;;;5058779;28;20055;-31
2023/04/03 10:00:31;;;;;;;1.15;0.90;;;22.00;63.00;;;;;;5066651;28;20099;-32
2023/04/03 10:02:58;;;;;;;2.80;0.90;;;21.10;67.30;;;;;;5073218;28;20048;-32
2023/04/03 10:05:30;;;;;;;0.75;0.70;;;22.10;41.30;;;;;;5065353;28;20051;-31
2023/04/03 10:08:11;;;;;;;1.23;0.70;;;22.10;41.30;;;;;;5061793;28;20139;-34
2023/04/03 10:10:38;;;;;;;2.63;0.80;;;;;;;;;;5064121;28;20059;-31
2023/04/03 10:13:07;;;;;;;1.17;0.75;;;21.70;61.20;;;;;;5069940;28;20516;-31
2023/04/03 10:15:39;;;;;;;2.22;1.00;;;20.90;58.10;;;;;;5062647;28;20063;-32
2023/04/03 10:18:07;;;;;;;1.83;1.00;;;22.10;56.40;;;;;;5062698;28;20055;-35
2023/04/03 10:20:36;;;;;;;1.65;0.90;;;23.10;67.90;;;;;;5062377;28;20059;-31
2023/04/03 10:23:16;;;;;;;1.33;0.82;;;22.00;67.40;;;;;;5052979;28;20379;-32
2023/04/03 10:25:44;;;;;;;1.05;0.80;;;22.10;41.20;;;;;;5058766;28;20098;-35
2023/04/03 10:28:13;;;;;;;1.10;0.70;;;22.10;41.20;;;;;;5059837;28;20040;-35
2023/04/03 10:30:48;;;;;;;1.83;0.90;;;22.10;54.50;;;;;;5060904;28;20482;-32
2023/04/03 10:33:21;;;;;;;1.70;0.80;;;22.00;41.10;;;;;;5060817;28;20051;-33
2023/04/03 10:35:53;;;;;;;2.75;1.05;;;22.00;41.20;;;;;;5052517;28;20049;-38
2023/04/03 10:38:22;;;;;;;3.88;0.93;;;21.80;50.50;;;;;;5062082;28;20059;-31
2023/04/03 10:40:53;;;;;;;4.00;0.80;;;22.00;41.20;;;;;;5054323;28;20135;-32
2023/04/03 10:43:24;;;;;;;1.20;0.70;;;21.90;67.50;;;;;;5064842;28;20402;-31
2023/04/03 10:45:54;;;;;;;3.20;0.90;;;22.00;67.30;;;;;;5073315;28;20059;-31
2023/04/03 10:48:31;;;;;;;1.50;1.02;;;22.50;68.00;;;;;;5072847;28;20054;-31
2023/04/03 10:51:01;;;;;;;1.30;0.80;;;22.30;50.30;;;;;;5070968;28;20093;-34
2023/04/03 10:53:32;;;;;;;1.65;0.77;;;21.90;41.50;;;;;;5072147;28;20040;-31
2023/04/03 10:56:02;;;;;;;2.08;0.73;;;21.90;41.30;;;;;;5067916;28;20088;-31
2023/04/03 10:58:34;;;;;;;1.15;0.82;;;21.90;68.00;;;;;;5072210;28;20063;-31
2023/04/03 11:01:03;;;;;;;1.25;0.80;;;21.90;41.40;;;;;;5072701;28;20055;-35
2023/04/03 11:03:32;;;;;;;2.85;0.80;;;21.90;41.30;;;;;;5071763;28;20040;-36
2023/04/03 11:05:59;;;;;;;1.98;1.00;;;;;;;;;;5061133;28;20056;-36
2023/04/03 11:08:28;;;;;;;1.17;0.70;;;22.00;67.80;;;;;;5061310;28;20080;-31
2023/04/03 11:10:56;;;;;;;0.82;0.77;;;21.80;41.30;;;;;;5061174;28;20060;-34
2023/04/03 11:13:25;;;;;;;1.35;0.90;;;21.80;41.40;;;;;;5052124;28;20041;-37
2023/04/03 11:15:52;;;;;;;1.50;0.85;;;21.70;46.40;;;;;;5051557;28;20049;-31
2023/04/03 11:18:21;;;;;;;2.15;0.80;;;21.40;67.60;;;;;;5052085;28;20081;-31
2023/04/03 11:20:51;;;;;;;1.35;0.80;;;20.70;48.00;;;;;;5051560;28;20497;-30
2023/04/03 11:23:20;;;;;;;1.85;1.00;;;20.40;67.10;;;;;;5051606;28;20040;-31
2023/04/03 11:25:47;;;;;;;1.52;0.90;;;22.90;68.50;;;;;;5059110;28;20055;-30
2023/04/03 11:28:14;;;;;;;1.38;0.70;;;21.80;53.00;;;;;;5056482;28;20055;-32
2023/04/03 11:30:44;;;;;;;2.70;0.82;;;21.20;67.80;;;;;;5067898;28;20052;-30
2023/04/03 11:33:28;;;;;;;1.85;0.90;;;21.80;68.10;;;;;;5062729;28;20049;-30
2023/04/03 11:35:56;;;;;;;1.40;0.80;;;21.70;68.40;;;;;;5063223;28;20052;-30
2023/04/03 11:38:26;;;;;;;1.30;0.90;;;21.10;68.00;;;;;;5067484;28;20052;-30
2023/04/03 11:40:54;;;;;;;1.55;0.63;;;21.10;68.20;;;;;;5057605;28;20052;-32
2023/04/03 11:43:26;;;;;;;1.38;0.82;;;21.40;41.70;;;;;;5052800;28;20059;-33
2023/04/03 11:45:59;;;;;;;1.02;0.80;;;21.30;41.70;;;;;;5072291;28;20052;-32
2023/04/03 11:48:53;;;;;;;1.85;1.00;;;20.10;67.90;;;;;;5062829;28;20052;-30
2023/04/03 11:51:53;;;;;;;1.30;0.80;;;21.20;41.80;;;;;;5062425;28;20132;-33
2023/04/03 11:54:48;;;;;;;1.23;0.82;;;21.10;41.90;;;;;;5071775;28;20099;-31
2023/04/03 11:57:45;;;;;;;1.50;0.90;;;21.40;52.70;;;;;;5030813;28;20048;-32
2023/04/03 12:00:50;;;;;;;1.77;0.80;;;20.90;68.50;;;;;;5047046;28;20045;-31
2023/04/03 12:04:05;;;;;;;1.50;0.68;;;20.00;63.40;;;;;;5053741;28;20044;-32
2023/04/03 12:06:54;;;;;;;1.05;0.77;;;20.90;42.10;;;;;;5056847;28;20052;-30
2023/04/03 12:09:28;;;;;;;0.77;0.77;;;21.40;69.00;;;;;;5059244;28;20097;-31
2023/04/03 12:11:56;;;;;;;0.88;0.70;;;21.10;45.40;;;;;;5062419;28;20076;-31
2023/04/03 12:14:24;;;;;;;1.30;1.10;;;20.90;42.30;;;;;;5050350;28;20068;-37
2023/04/03 12:16:51;;;;;;;1.52;0.85;;;20.70;68.80;;;;;;5051296;28;20048;-31
2023/04/03 12:19:35;;;;;;;1.92;0.80;;;21.00;42.30;;;;;;5050948;28;20059;-33
2023/04/03 12:22:13;;;;;;;1.67;0.73;;;21.00;42.30;;;;;;5051313;28;20465;-32
2023/04/03 12:24:42;;;;;;;0.90;0.70;;;20.60;45.70;;;;;;5060944;28;20048;-30
2023/04/03 12:27:24;;;;;;;2.90;0.80;;;21.10;69.00;;;;;;5071017;28;20386;-30
2023/04/03 12:29:54;;;;;;;0.95;0.70;;;21.60;69.40;;;;;;5055594;28;20609;-30
2023/04/03 12:32:27;;;;;;;1.30;0.77;;;21.00;42.30;;;;;;5051715;28;20478;-35
2023/04/03 12:35:12;;;;;;;2.60;0.98;;;21.40;55.30;;;;;;5053089;28;20045;-31
2023/04/03 12:37:49;;;;;;;0.75;0.60;;;21.00;42.30;;;;;;5056266;28;20056;-31
2023/04/03 12:40:24;;;;;;;1.85;0.85;;;20.10;47.60;;;;;;5051250;28;20135;-31
2023/04/03 12:43:10;;;;;;;0.93;0.70;;;21.30;69.30;;;;;;5051379;28;20057;-29
2023/04/03 12:45:41;;;;;;;1.67;0.70;;;21.00;42.30;;;;;;5051421;28;20052;-30
2023/04/03 12:48:13;;;;;;;1.30;0.80;;;21.10;64.40;;;;;;5051153;28;20131;-32
2023/04/03 12:50:40;;;;;;;1.17;0.88;;;;;;;;;;5050863;28;20049;-32
2023/04/03 12:53:13;;;;;;;1.60;0.75;;;20.40;68.50;;;;;;5060986;28;20076;-31
2023/04/03 12:55:39;;;;;;;0.73;0.63;;;21.60;67.70;;;;;;5059542;28;20135;-31
2023/04/03 12:58:17;;;;;;;2.00;0.85;;;20.70;55.80;;;;;;5059000;28;20413;-32
2023/04/03 13:00:44;;;;;;;1.08;0.75;;;;;;;;;;5059879;28;20049;-34
2023/04/03 13:03:22;;;;;;;0.82;0.70;;;20.70;68.60;;;;;;5060470;28;20054;-32
2023/04/03 13:05:49;;;;;;;2.35;0.90;;;21.30;68.90;;;;;;5054993;28;20041;-31
2023/04/03 13:08:18;;;;;;;1.63;0.85;;;21.40;69.00;;;;;;5053934;28;20072;-30
2023/04/03 13:10:50;;;;;;;1.08;0.70;;;20.10;68.60;;;;;;5054440;28;20425;-30
2023/04/03 13:13:17;;;;;;;0.93;0.70;;;;;;;;;;5054295;28;20130;-30
2023/04/03 13:15:45;;;;;;;1.30;0.80;;;21.90;69.60;;;;;;5054582;28;20055;-31
2023/04/03 13:18:23;;;;;;;1.63;0.63;;;21.00;42.30;;;;;;5054231;28;20045;-32
2023/04/03 13:20:50;;;;;;;0.75;0.68;;;;;;;;;;5054792;28;20471;-33